Latest Weather Observations for Sheoaks

IDV60801

Issued at 3:05 am EST Friday 1 August 2014 (issued every 30 minutes, with the page automatically refreshed every 10 minutes)

About weather observations | Map of weather stations | Latest weather observations for VIC | Other Formats
Station Details ID: 087168 Name: SHEOAKS Lat: -37.91 Lon: 144.13 Height: 236.7 m
Data from the previous 72 hours. | See also: Recent months at Sheoaks
Date/Time
EST
Temp
°C
App
Temp
°C
Dew
Point
Rel
Hum
%
Delta-T
°C
Wind Press
QNH
hPa
Press
MSL
hPa
Rain
since 9 am
mm
Dir
 
Spd
km/h
Gust
km/h
Spd
kts
Gust
kts
01/03:00am 4.5 -1.5 1.2 79 1.3 NW 22 41 12 22 1001.6 1001.9 12.4
01/02:30am 4.5 -0.9 1.2 79 1.3 NW 19 30 10 16 1001.5 - 12.4
01/02:00am 4.6 -1.0 1.1 78 1.4 NW 20 35 11 19 1001.6 1001.9 12.4
01/01:30am 4.3 -1.1 1.2 80 1.2 NW 19 33 10 18 1001.6 - 12.4
01/01:00am 4.3 -1.3 1.0 79 1.3 NW 20 32 11 17 1001.5 1001.8 12.4
01/12:30am 4.3 -0.8 0.8 78 1.4 NW 17 26 9 14 1001.4 - 12.4
01/12:00am 4.9 -0.6 0.9 75 1.6 NW 19 32 10 17 1001.6 1001.9 12.4
 
Date/Time
EST
Temp
°C
App
Temp
°C
Dew
Point
Rel
Hum
%
Delta-T
°C
Wind Press
QNH
hPa
Press
MSL
hPa
Rain
since 9 am
mm
Dir
 
Spd
km/h
Gust
km/h
Spd
kts
Gust
kts
31/11:30pm 5.1 -0.5 1.0 75 1.6 NW 20 32 11 17 1001.3 - 12.4
31/11:00pm 5.5 0.0 0.9 72 1.8 WNW 19 32 10 17 1001.3 1001.6 12.4
31/10:30pm 5.5 -0.1 1.2 74 1.7 NW 20 35 11 19 1001.4 - 12.4
31/10:00pm 5.6 -0.3 1.7 76 1.6 NW 22 35 12 19 1001.2 1001.5 12.4
31/09:30pm 5.6 -0.6 1.9 77 1.5 NW 24 39 13 21 1000.7 - 12.4
31/09:00pm 5.9 -0.8 1.4 73 1.8 NW 26 41 14 22 999.9 1000.2 12.4
31/08:34pm 6.7 -0.8 1.0 67 2.3 WNW 30 50 16 27 1000.5 - 12.4
31/08:30pm 6.7 -1.2 0.8 66 2.4 WNW 32 50 17 27 1000.4 - 12.4
31/08:14pm 6.7 -1.2 0.8 66 2.4 WNW 32 52 17 28 1000.1 - 12.4
31/08:00pm 6.7 -0.4 1.4 69 2.2 WNW 28 41 15 22 1000.1 1000.4 12.4
31/07:35pm 6.6 -0.4 1.7 71 2.0 WNW 28 52 15 28 999.4 - 12.4
31/07:30pm 6.7 0.1 2.2 73 1.9 WNW 26 43 14 23 999.7 - 12.4
31/07:00pm 6.5 0.4 2.9 78 1.5 WNW 24 35 13 19 999.8 1000.1 12.4
31/06:30pm 6.3 0.7 3.5 82 1.2 WNW 22 35 12 19 999.1 - 12.4
31/06:00pm 6.4 0.0 3.4 81 1.3 WNW 26 44 14 24 999.2 999.4 12.4
31/05:30pm 6.1 0.1 3.4 83 1.1 WNW 24 39 13 21 998.5 - 12.4
31/05:00pm 5.8 -0.1 3.8 87 0.9 WNW 24 37 13 20 998.6 998.8 12.2
31/04:30pm 5.7 -1.3 3.9 88 0.8 W 30 56 16 30 998.4 - 11.4
31/04:00pm 5.7 -1.3 4.2 90 0.7 W 30 52 16 28 998.4 998.6 10.0
31/03:30pm 6.4 -1.4 4.7 89 0.7 W 35 59 19 32 997.8 - 8.2
31/03:00pm 6.7 0.4 5.5 92 0.5 W 28 48 15 26 997.2 997.5 7.4
31/02:30pm 7.4 0.3 6.2 92 0.6 W 33 54 18 29 996.6 - 5.8
31/02:00pm 8.0 -0.6 6.3 89 0.8 W 41 63 22 34 995.5 995.7 1.6
31/01:55pm 9.2 -0.1 5.8 79 1.6 W 44 63 24 34 995.0 - 0.0
31/01:52pm 14.3 5.7 6.6 60 3.8 W 41 61 22 33 994.6 - 0.0
31/01:30pm 15.3 5.4 6.6 56 4.3 NNW 48 82 26 44 992.9 - 0.0
31/01:00pm 15.1 6.5 6.4 56 4.3 NNW 41 67 22 36 993.3 993.6 0.0
31/12:30pm 14.9 5.7 6.5 57 4.1 NNW 44 74 24 40 993.6 - 0.0
31/12:00pm 14.9 6.4 7.0 59 4.0 NNW 41 65 22 35 994.9 995.1 0.0
31/11:30am 14.4 5.2 6.5 59 3.9 NNW 44 76 24 41 995.1 - 0.0
31/11:00am 13.8 5.6 6.4 61 3.6 NNW 39 67 21 36 996.4 996.7 0.0
31/10:30am 13.5 4.5 6.6 63 3.4 NNW 43 67 23 36 996.9 - 0.0
31/10:00am 13.2 4.6 6.5 64 3.3 NNW 41 72 22 39 997.1 997.4 0.0
31/09:30am 12.9 3.2 6.0 63 3.3 NNW 46 76 25 41 997.3 - 0.0
31/09:00am 12.6 3.0 6.2 65 3.1 NNW 46 69 25 37 997.6 997.9 0.2
31/08:30am 12.3 3.3 6.6 68 2.8 NNW 43 63 23 34 998.4 - -
31/08:00am 12.3 3.2 6.6 68 2.8 NNW 44 69 24 37 998.5 998.7 -
31/07:30am 12.2 2.7 6.7 69 2.7 NNW 46 70 25 38 999.2 - -
31/07:00am 12.4 3.2 6.5 67 2.9 NNW 44 72 24 39 999.3 999.6 -
31/06:30am 12.3 3.8 6.8 69 2.7 NNW 41 69 22 37 999.4 - -
31/06:00am 12.3 5.3 7.0 70 2.6 NNW 33 54 18 29 1000.0 1000.3 -
31/05:30am 12.5 5.7 6.8 68 2.8 NNW 32 52 17 28 1000.6 - -
31/05:00am 12.7 4.9 6.7 67 2.9 NNW 37 65 20 35 1001.0 1001.3 -
31/04:31am 12.7 5.6 6.5 66 3.0 NW 33 52 18 28 1001.6 - -
31/04:30am 12.7 5.2 6.5 66 3.0 NW 35 52 19 28 1001.7 - -
31/04:00am 13.4 5.3 5.3 58 3.9 NW 37 67 20 36 1002.2 1002.5 -
31/03:31am 13.3 6.1 5.2 58 3.8 NW 32 52 17 28 1002.8 - -
31/03:30am 13.3 6.1 5.2 58 3.8 NW 32 48 17 26 1002.8 - -
31/03:00am 12.8 6.6 6.2 64 3.2 NW 28 46 15 25 1003.5 1003.8 0.0
31/02:30am 12.7 7.1 7.2 69 2.7 NNW 26 46 14 25 1003.9 - -
31/02:09am 12.6 6.7 7.3 70 2.6 NNW 28 56 15 30 1004.2 - -
31/02:00am 12.7 7.1 7.2 69 2.7 NNW 26 41 14 22 1004.7 1005.0 -
31/01:30am 13.2 7.1 6.8 65 3.1 NNW 28 44 15 24 1005.4 - -
31/01:01am 13.2 6.2 6.1 62 3.4 NNW 32 50 17 27 1005.7 - -
31/01:00am 13.2 6.1 6.3 63 3.3 NNW 33 50 18 27 1005.7 1006.0 -
31/12:30am 13.2 6.2 7.0 66 3.0 NW 33 56 18 30 1006.0 - -
31/12:00am 13.1 6.8 7.3 68 2.9 NW 30 52 16 28 1006.6 1007.0 -
 
Date/Time
EST
Temp
°C
App
Temp
°C
Dew
Point
Rel
Hum
%
Delta-T
°C
Wind Press
QNH
hPa
Press
MSL
hPa
Rain
since 9 am
mm
Dir
 
Spd
km/h
Gust
km/h
Spd
kts
Gust
kts
30/11:36pm 13.3 7.4 7.7 69 2.8 NW 28 46 15 25 1007.0 - -
30/11:30pm 13.4 8.0 7.8 69 2.8 NW 26 46 14 25 1007.2 - -
30/11:00pm 13.8 7.6 8.0 68 2.9 NW 30 50 16 27 1007.6 1007.9 -
30/10:30pm 13.7 7.1 7.7 67 3.0 NW 32 56 17 30 1007.7 - -
30/10:00pm 13.8 6.8 6.9 63 3.4 NW 33 54 18 29 1007.6 1007.9 -
30/09:35pm 13.7 6.9 7.0 64 3.3 NNW 32 52 17 28 1007.7 - -
30/09:30pm 13.8 6.9 7.1 64 3.3 NW 33 52 18 28 1007.9 - -
30/09:23pm 13.7 7.7 7.2 65 3.2 NNW 28 48 15 26 1008.0 - -
30/09:00pm 13.6 7.8 7.8 68 2.9 NW 28 43 15 23 1008.2 1008.5 0.0
30/08:30pm 13.7 7.9 8.1 69 2.8 NW 28 52 15 28 1008.3 - -
30/08:23pm 13.5 7.7 8.1 70 2.7 NW 28 52 15 28 1008.4 - -
30/08:00pm 13.2 7.9 8.3 72 2.5 NW 26 41 14 22 1008.4 1008.7 -
30/07:30pm 13.4 7.7 8.5 72 2.5 NW 28 43 15 23 1008.4 - -
30/07:00pm 13.7 7.7 8.5 71 2.6 NW 30 56 16 30 1008.4 1008.7 -
30/06:45pm 13.7 8.1 8.7 72 2.5 NW 28 56 15 30 1008.6 - -
30/06:30pm 13.7 8.1 8.7 72 2.5 NW 28 43 15 23 1008.6 - -
30/06:00pm 13.8 9.0 9.0 73 2.5 NW 24 41 13 22 1008.5 1008.8 -
30/05:30pm 13.9 9.2 9.1 73 2.5 NW 24 41 13 22 1008.6 - -
30/05:00pm 14.2 9.1 9.2 72 2.6 NW 26 43 14 23 1008.6 1008.9 -
30/04:34pm 14.8 9.4 9.4 70 2.8 NW 28 52 15 28 1008.5 - -
30/04:30pm 14.6 9.9 9.4 71 2.7 NW 24 39 13 21 1008.5 - -
30/04:00pm 15.3 9.2 9.7 69 2.9 NW 32 54 17 29 1008.5 1008.8 -
30/03:46pm 15.4 9.7 9.7 69 3.0 NW 30 52 16 28 1008.4 - -
30/03:30pm 15.3 10.5 10.3 72 2.7 NW 26 41 14 22 1008.7 - -
30/03:00pm 15.2 9.2 10.0 71 2.8 NW 32 50 17 27 1009.0 1009.3 0.2
30/02:30pm 14.5 9.5 11.1 80 1.8 NW 28 48 15 26 1008.9 - -
30/02:23pm 14.4 9.4 11.0 80 1.8 NW 28 48 15 26 1008.9 - -
30/02:00pm 14.9 10.7 11.1 78 2.1 NW 24 44 13 24 1009.0 1009.3 -
30/01:30pm 14.9 9.8 10.7 76 2.2 NW 28 52 15 28 1009.1 - -
30/12:00pm 14.1 10.1 10.5 79 1.9 NW 22 50 12 27 1010.9 1011.3 0.0
30/11:30am 14.5 9.2 9.7 73 2.5 NW 28 48 15 26 1011.0 - 0.0
30/11:23am 14.5 9.2 9.7 73 2.5 NW 28 48 15 26 1011.1 - 0.0
30/11:00am 13.9 9.3 9.5 75 2.3 NW 24 37 13 20 1011.7 1012.0 0.0
30/10:30am 13.4 8.5 9.8 79 1.9 NW 26 43 14 23 1011.7 - 0.0
30/10:00am 13.1 8.9 9.7 80 1.8 NNW 22 41 12 22 1011.8 1012.1 0.0
30/09:30am 12.5 7.9 9.5 82 1.5 NNW 24 41 13 22 1012.0 - 0.0
30/09:00am 12.4 8.0 8.9 79 1.8 NNW 22 43 12 23 1011.6 1011.9 1.6
30/08:30am 12.2 8.0 8.1 76 2.0 NW 20 32 11 17 1011.4 - 1.6
30/08:00am 11.5 7.1 7.6 77 1.9 NNW 20 32 11 17 1010.9 1011.3 1.6
30/07:30am 10.6 7.2 7.8 83 1.4 NNW 15 24 8 13 1011.0 - 1.6
30/07:00am 10.5 7.1 7.6 82 1.4 NW 15 22 8 12 1011.2 1011.6 1.6
30/06:30am 10.3 7.0 8.1 86 1.1 NNW 15 24 8 13 1011.4 - 1.6
30/06:00am 10.7 7.7 7.9 83 1.4 NW 13 19 7 10 1011.2 1011.6 1.6
30/05:30am 11.2 7.5 8.1 81 1.5 NW 17 26 9 14 1011.1 - 1.6
30/05:00am 11.3 7.7 8.2 81 1.5 NW 17 33 9 18 1010.8 1011.2 1.6
30/04:30am 11.5 6.6 8.4 81 1.5 WNW 24 35 13 19 1010.7 - 1.6
30/04:00am 11.7 7.4 9.4 86 1.2 WNW 22 37 12 20 1010.4 1010.8 1.6
30/03:32am 10.8 5.4 9.6 92 0.6 W 28 50 15 27 1010.9 - 1.4
30/03:30am 11.1 6.1 9.5 90 0.8 W 26 50 14 27 1010.9 - 1.4
30/03:00am 12.3 7.7 9.7 84 1.3 WNW 24 37 13 20 1010.5 1010.9 1.0
30/02:30am 13.0 7.5 9.3 78 1.9 WNW 28 46 15 25 1010.4 - 1.0
30/02:24am 13.1 7.7 9.4 78 1.9 WNW 28 46 15 25 1010.3 - 1.0
30/02:00am 12.9 7.4 9.2 78 1.9 WNW 28 39 15 21 1010.2 1010.6 1.0
30/01:30am 12.9 7.9 9.5 80 1.8 NW 26 43 14 23 1010.3 - 1.0
30/01:00am 12.7 8.9 9.7 82 1.6 NW 20 35 11 19 1010.0 1010.4 1.0
30/12:30am 13.0 7.2 9.6 80 1.8 WNW 30 43 16 23 1009.9 - 1.0
30/12:00am 12.0 8.5 10.9 93 0.6 W 20 32 11 17 1010.0 1010.4 1.0
 
Date/Time
EST
Temp
°C
App
Temp
°C
Dew
Point
Rel
Hum
%
Delta-T
°C
Wind Press
QNH
hPa
Press
MSL
hPa
Rain
since 9 am
mm
Dir
 
Spd
km/h
Gust
km/h
Spd
kts
Gust
kts
29/11:33pm 12.6 7.5 10.5 87 1.1 WNW 28 48 15 26 1010.0 - 0.6
29/11:30pm 12.6 7.5 10.5 87 1.1 WNW 28 37 15 20 1010.0 - 0.6
29/11:00pm 12.5 7.7 10.2 86 1.2 NW 26 37 14 20 1009.6 1009.9 0.6
29/10:30pm 12.3 7.2 10.5 89 0.9 NW 28 39 15 21 1009.6 - 0.6
29/10:03pm 13.1 7.8 9.9 81 1.7 NW 28 46 15 25 1009.4 - 0.6
29/10:00pm 13.2 7.9 9.8 80 1.8 NW 28 43 15 23 1009.3 1009.6 0.6
29/09:30pm 12.7 8.7 10.4 86 1.2 NW 22 39 12 21 1009.0 - 0.6
29/09:00pm 13.3 8.8 9.9 80 1.8 NW 24 41 13 22 1008.7 1009.0 0.6
29/08:34pm 13.5 7.8 9.9 79 1.9 NW 30 48 16 26 1008.7 - 0.6
29/08:30pm 13.5 7.4 9.9 79 1.9 NW 32 48 17 26 1008.7 - 0.6
29/08:21pm 13.6 8.3 10.0 79 1.9 NW 28 48 15 26 1008.5 - 0.6
29/08:00pm 13.0 7.8 10.4 84 1.4 NW 28 43 15 23 1008.6 1008.9 0.6
29/07:30pm 13.7 8.0 9.9 78 2.0 NW 30 43 16 23 1008.8 - 0.6
29/07:00pm 13.1 8.4 10.5 84 1.4 NW 26 46 14 25 1008.2 1008.5 0.6
29/06:30pm 13.3 7.7 10.3 82 1.6 NW 30 48 16 26 1007.8 - 0.6
29/06:04pm 13.2 7.6 10.0 81 1.7 NW 30 48 16 26 1007.7 - 0.6
29/06:00pm 13.2 7.6 10.0 81 1.7 NW 30 44 16 24 1007.6 1007.9 0.6
29/05:48pm 13.3 8.1 10.1 81 1.7 NW 28 48 15 26 1007.4 - 0.6
29/05:30pm 13.1 8.3 10.3 83 1.5 NW 26 44 14 24 1007.5 - 0.6
29/05:02pm 13.3 8.1 10.1 81 1.7 NW 28 54 15 29 1007.0 - 0.6
29/05:00pm 13.2 8.4 10.2 82 1.6 NW 26 46 14 25 1007.0 1007.4 0.6
29/04:53pm 13.0 7.8 10.4 84 1.4 NW 28 46 15 25 1006.8 - 0.6
29/04:30pm 12.2 7.3 11.3 94 0.5 NW 28 43 15 23 1007.0 - 0.6
29/04:03pm 12.5 6.2 10.9 90 0.8 NW 35 56 19 30 1007.2 - 0.0
29/04:00pm 12.6 5.8 10.7 88 1.0 NW 37 56 20 30 1006.7 1007.1 0.0
29/03:30pm 14.0 7.6 9.4 74 2.4 NW 33 59 18 32 1005.7 - 0.0
29/03:01pm 14.1 8.2 9.1 72 2.6 NW 30 48 16 26 1005.9 - 0.0
29/03:00pm 14.0 8.1 9.2 73 2.5 NW 30 46 16 25 1005.9 1006.2 0.0
29/02:30pm 13.7 6.9 9.4 75 2.2 NW 35 61 19 33 1005.8 - 0.0
29/02:00pm 14.2 7.0 9.0 71 2.7 NW 37 65 20 35 1005.6 1005.9 0.0
29/01:30pm 13.8 6.9 8.8 72 2.6 NW 35 56 19 30 1005.4 - 0.0
29/01:00pm 13.5 5.8 8.6 72 2.5 NW 39 63 21 34 1005.9 1006.2 0.0
29/12:30pm 13.5 5.7 8.4 71 2.6 NW 39 67 21 36 1006.2 - 0.0
29/12:00pm 13.1 5.7 8.4 73 2.4 NW 37 61 20 33 1006.6 1007.0 0.0
29/11:30am 13.1 5.3 8.2 72 2.5 NW 39 59 21 32 1006.8 - 0.0
29/11:00am 13.0 6.0 8.3 73 2.4 NW 35 61 19 33 1006.7 1007.1 0.0
29/10:30am 13.4 6.4 8.3 71 2.6 NW 35 56 19 30 1006.9 - 0.0
29/10:00am 13.1 6.3 7.8 70 2.6 NW 33 59 18 32 1007.0 1007.4 0.0
29/09:30am 12.4 5.2 7.5 72 2.4 NW 35 67 19 36 1006.6 - 0.0
29/09:00am 12.1 4.8 7.2 72 2.4 NW 35 56 19 30 1006.9 1007.3 0.0
29/08:30am 11.8 4.4 6.9 72 2.4 NW 35 59 19 32 1006.9 - 0.0
29/08:00am 11.2 4.4 6.7 74 2.2 NW 32 57 17 31 1007.3 1007.6 0.0
29/07:34am 10.9 4.0 6.6 75 2.1 NW 32 52 17 28 1007.5 - 0.0
29/07:30am 11.0 4.1 6.6 74 2.1 NW 32 50 17 27 1007.5 - 0.0
29/07:00am 10.9 4.0 6.6 75 2.1 NNW 32 52 17 28 1007.7 1008.0 0.0
29/06:38am 11.2 5.1 6.7 74 2.2 NNW 28 48 15 26 1007.8 - 0.0
29/06:30am 11.1 5.0 6.6 74 2.2 NNW 28 46 15 25 1007.9 - 0.0
29/06:12am 11.1 5.0 6.6 74 2.2 NNW 28 48 15 26 1007.9 - 0.0
29/06:00am 11.0 4.9 6.7 75 2.1 NNW 28 44 15 24 1008.0 1008.3 0.0
29/05:35am 11.0 4.5 6.6 74 2.1 NNW 30 52 16 28 1007.7 - 0.0
29/05:30am 10.8 4.7 6.6 75 2.0 NNW 28 41 15 22 1007.9 - 0.0
29/05:18am 10.8 4.7 6.6 75 2.0 NNW 28 48 15 26 1007.8 - 0.0
29/05:00am 11.2 5.1 6.7 74 2.2 NNW 28 44 15 24 1007.9 1008.2 0.0
29/04:30am 11.2 5.1 6.7 74 2.2 NNW 28 46 15 25 1007.6 - 0.0
29/04:00am 11.1 4.7 6.8 75 2.1 NNW 30 48 16 26 1007.9 1008.2 0.0
29/03:30am 11.1 4.7 7.0 76 2.0 NW 30 50 16 27 1008.0 - 0.0
29/03:06am 10.9 4.9 7.0 77 1.9 NW 28 46 15 25 1008.1 - 0.0

Other Formats:

Comma delimited format used in spreadsheet applications
http://www.bom.gov.au/fwo/IDV60801/IDV60801.94863.axf

JavaScript Object Notation format (JSON) in row-major order
http://www.bom.gov.au/fwo/IDV60801/IDV60801.94863.json